Time;durP1;ratioP1;P1;durP2;ratioP2;P2;SDS_P1;SDS_P2;PMS_P1;PMS_P2;Temp;Humidity;BMP_temperature;BMP_pressure;BME280_temperature;BME280_humidity;BME280_pressure;Samples;Min_cycle;Max_cycle;Signal;HPM_P1;HPM_P2
2022/07/25 00:01:21;;;;;;;;;;;30.10;88.40;;;;;;5024570;28;20259;-56
2022/07/25 00:03:47;;;;;;;;;;;30.10;88.30;;;;;;5024164;28;19917;-57
2022/07/25 00:06:14;;;;;;;;;;;30.10;87.90;;;;;;5024692;28;20186;-52
2022/07/25 00:08:40;;;;;;;;;;;30.00;87.80;;;;;;5023990;28;19905;-56
2022/07/25 00:11:06;;;;;;;;;;;30.00;88.20;;;;;;5023835;28;19915;-51
2022/07/25 00:13:33;;;;;;;;;;;30.00;88.30;;;;;;5024197;28;19914;-57
2022/07/25 00:15:59;;;;;;;;;;;30.00;87.90;;;;;;5024420;28;19963;-52
2022/07/25 00:18:25;;;;;;;;;;;30.00;87.60;;;;;;5024108;28;19910;-57
2022/07/25 00:20:51;;;;;;;;;;;29.90;86.90;;;;;;5024431;28;19909;-54
2022/07/25 00:23:18;;;;;;;;;;;29.90;86.80;;;;;;5023822;28;19909;-53
2022/07/25 00:25:44;;;;;;;;;;;29.90;86.80;;;;;;5024154;28;19918;-52
2022/07/25 00:28:10;;;;;;;;;;;29.90;86.30;;;;;;5023838;28;19909;-56
2022/07/25 00:30:36;;;;;;;;;;;29.90;86.20;;;;;;5024175;28;20265;-57
2022/07/25 00:33:02;;;;;;;;;;;29.90;85.90;;;;;;5023815;28;19914;-53
2022/07/25 00:35:29;;;;;;;;;;;29.90;86.00;;;;;;5024328;28;19909;-52
2022/07/25 00:37:55;;;;;;;;;;;29.80;86.10;;;;;;5023957;28;19910;-55
2022/07/25 00:40:21;;;;;;;;;;;29.80;85.70;;;;;;5023871;28;19944;-57
2022/07/25 00:42:47;;;;;;;;;;;29.80;85.90;;;;;;5023787;28;19917;-56
2022/07/25 00:45:13;;;;;;;;;;;29.80;85.70;;;;;;5023817;28;19917;-59
2022/07/25 00:47:40;;;;;;;;;;;29.80;85.60;;;;;;5023487;28;20098;-57
2022/07/25 00:50:06;;;;;;;;;;;29.70;85.60;;;;;;5023832;28;19910;-55
2022/07/25 00:52:33;;;;;;;;;;;29.70;85.80;;;;;;5023265;28;19942;-53
2022/07/25 00:55:00;;;;;;;;;;;29.70;85.90;;;;;;5023393;28;20153;-52
2022/07/25 00:57:26;;;;;;;;;;;29.70;85.90;;;;;;5023096;28;19914;-56
2022/07/25 00:59:52;;;;;;;;;;;29.70;86.00;;;;;;5022950;28;19909;-51
2022/07/25 01:02:18;;;;;;;;;;;29.70;85.90;;;;;;5023091;28;19909;-52
2022/07/25 01:04:44;;;;;;;;;;;29.70;86.10;;;;;;5023162;28;19929;-53
2022/07/25 01:07:10;;;;;;;;;;;29.70;86.20;;;;;;5023187;28;19906;-53
2022/07/25 01:09:37;;;;;;;;;;;29.70;86.40;;;;;;5022964;28;19920;-54
2022/07/25 01:12:03;;;;;;;;;;;29.70;86.60;;;;;;5023115;28;19966;-56
2022/07/25 01:14:29;;;;;;;;;;;29.60;86.30;;;;;;5023102;28;20181;-54
2022/07/25 01:16:55;;;;;;;;;;;29.70;86.50;;;;;;5023047;28;19906;-55
2022/07/25 01:19:21;;;;;;;;;;;29.60;86.40;;;;;;5023095;28;19967;-55
2022/07/25 01:21:48;;;;;;;;;;;29.60;86.60;;;;;;5022963;28;19942;-52
2022/07/25 01:24:14;;;;;;;;;;;29.60;87.00;;;;;;5023139;28;19920;-57
2022/07/25 01:26:40;;;;;;;;;;;29.60;86.50;;;;;;5021697;28;19905;-55
2022/07/25 01:29:07;;;;;;;;;;;29.60;86.50;;;;;;5023156;28;19910;-56
2022/07/25 01:31:33;;;;;;;;;;;29.60;86.40;;;;;;5022807;28;20122;-55
2022/07/25 01:33:59;;;;;;;;;;;29.60;86.40;;;;;;5022225;28;19937;-55
2022/07/25 01:36:25;;;;;;;;;;;29.50;86.10;;;;;;5022825;28;19906;-55
2022/07/25 01:38:51;;;;;;;;;;;29.50;86.00;;;;;;5022554;28;19906;-52
2022/07/25 01:41:17;;;;;;;;;;;29.50;86.20;;;;;;5022773;28;19905;-53
2022/07/25 01:43:44;;;;;;;;;;;29.50;86.10;;;;;;5022959;28;19910;-52
2022/07/25 01:46:10;;;;;;;;;;;29.40;86.30;;;;;;5023210;28;20193;-53
2022/07/25 01:48:36;;;;;;;;;;;29.40;86.30;;;;;;5022825;28;20008;-51
2022/07/25 01:51:02;;;;;;;;;;;29.40;86.50;;;;;;5023295;28;20213;-55
2022/07/25 01:53:30;;;;;;;;;;;29.40;86.60;;;;;;5022834;28;19910;-52
2022/07/25 01:55:56;;;;;;;;;;;29.40;86.50;;;;;;5022733;28;19914;-53
2022/07/25 01:58:22;;;;;;;;;;;29.40;86.50;;;;;;5022937;28;19911;-51
2022/07/25 02:00:48;;;;;;;;;;;29.40;86.50;;;;;;5023147;28;19914;-52
2022/07/25 02:03:30;;;;;;;;;;;29.40;86.40;;;;;;5022869;28;19924;-55
2022/07/25 02:06:00;;;;;;;;;;;29.30;86.40;;;;;;5023173;28;19966;-59
2022/07/25 02:08:26;;;;;;;;;;;29.30;86.60;;;;;;5022584;28;19912;-51
2022/07/25 02:10:53;;;;;;;;;;;29.30;86.70;;;;;;5021448;28;19941;-56
2022/07/25 02:13:19;;;;;;;;;;;29.20;86.70;;;;;;5022997;28;20101;-56
2022/07/25 02:15:45;;;;;;;;;;;29.30;86.80;;;;;;5023105;28;19914;-52
2022/07/25 02:18:12;;;;;;;;;;;29.20;86.90;;;;;;5022687;28;19906;-51
2022/07/25 02:20:38;;;;;;;;;;;29.20;87.10;;;;;;5022908;28;20140;-54
2022/07/25 02:23:07;;;;;;;;;;;29.10;87.00;;;;;;5022338;28;19937;-53
2022/07/25 02:25:34;;;;;;;;;;;29.10;87.30;;;;;;5022572;28;19914;-53
2022/07/25 02:28:00;;;;;;;;;;;29.10;87.30;;;;;;5022493;28;20105;-59
2022/07/25 02:30:27;;;;;;;;;;;29.10;87.40;;;;;;5022646;28;19914;-55
2022/07/25 02:32:53;;;;;;;;;;;29.10;87.60;;;;;;5022339;28;19909;-59
2022/07/25 02:35:19;;;;;;;;;;;29.10;87.70;;;;;;5022483;28;19920;-56
2022/07/25 02:37:45;;;;;;;;;;;29.10;87.90;;;;;;5022284;28;19909;-52
2022/07/25 02:40:11;;;;;;;;;;;29.10;87.90;;;;;;5022151;28;19913;-58
2022/07/25 02:42:37;;;;;;;;;;;29.10;88.00;;;;;;5022583;28;19946;-52
2022/07/25 02:45:04;;;;;;;;;;;29.00;88.30;;;;;;5022383;28;19921;-53
2022/07/25 02:47:30;;;;;;;;;;;29.00;88.30;;;;;;5021635;28;19906;-53
2022/07/25 02:49:56;;;;;;;;;;;29.00;88.50;;;;;;5021935;28;19936;-53
2022/07/25 02:52:22;;;;;;;;;;;29.00;88.60;;;;;;5021776;28;20186;-55
2022/07/25 02:54:49;;;;;;;;;;;29.00;88.90;;;;;;5021652;28;20270;-56
2022/07/25 02:57:15;;;;;;;;;;;29.00;88.90;;;;;;5021483;28;20000;-52
2022/07/25 02:59:41;;;;;;;;;;;28.90;89.00;;;;;;5021875;28;20168;-51
2022/07/25 03:02:08;;;;;;;;;;;28.90;89.10;;;;;;5021726;28;19906;-51
2022/07/25 03:04:34;;;;;;;;;;;28.90;89.10;;;;;;5021380;28;19922;-53
2022/07/25 03:07:00;;;;;;;;;;;29.00;89.10;;;;;;5022070;28;19905;-53
2022/07/25 03:09:26;;;;;;;;;;;29.00;89.10;;;;;;5022074;28;19920;-55
2022/07/25 03:11:52;;;;;;;;;;;28.90;89.10;;;;;;5021441;28;19980;-53
2022/07/25 03:14:18;;;;;;;;;;;28.90;89.40;;;;;;5021483;28;19946;-56
2022/07/25 03:16:44;;;;;;;;;;;28.90;89.50;;;;;;5021490;28;19905;-52
2022/07/25 03:19:13;;;;;;;;;;;28.90;89.60;;;;;;5021331;28;19945;-53
2022/07/25 03:21:39;;;;;;;;;;;28.80;89.60;;;;;;5022765;28;19972;-52
2022/07/25 03:24:05;;;;;;;;;;;28.80;89.90;;;;;;5025208;28;19972;-54
2022/07/25 03:26:31;;;;;;;;;;;28.80;90.00;;;;;;5024794;28;19912;-56
2022/07/25 03:28:57;;;;;;;;;;;28.80;89.80;;;;;;5024745;28;20208;-59
2022/07/25 03:31:24;;;;;;;;;;;28.90;89.60;;;;;;5024828;28;19912;-53
2022/07/25 03:33:50;;;;;;;;;;;28.80;89.70;;;;;;5024504;28;19946;-56
2022/07/25 03:36:16;;;;;;;;;;;28.80;90.00;;;;;;5024892;28;19905;-53
2022/07/25 03:38:45;;;;;;;;;;;28.80;90.00;;;;;;5024817;28;19948;-54
2022/07/25 03:41:11;;;;;;;;;;;28.70;90.10;;;;;;5025111;28;19913;-52
2022/07/25 03:43:37;;;;;;;;;;;28.70;90.00;;;;;;5025118;28;19936;-52
2022/07/25 03:46:03;;;;;;;;;;;28.70;90.10;;;;;;5025285;28;19913;-53
2022/07/25 03:48:29;;;;;;;;;;;28.70;90.20;;;;;;5024469;28;19906;-54
2022/07/25 03:50:56;;;;;;;;;;;28.70;90.20;;;;;;5024856;28;20134;-54
2022/07/25 03:53:22;;;;;;;;;;;28.70;90.30;;;;;;5024523;28;19910;-55
2022/07/25 03:55:48;;;;;;;;;;;28.60;90.30;;;;;;5023509;28;19914;-55
2022/07/25 03:58:14;;;;;;;;;;;28.60;90.30;;;;;;5024330;28;19905;-54
2022/07/25 04:00:40;;;;;;;;;;;28.70;90.40;;;;;;5023481;28;20031;-56
2022/07/25 04:03:06;;;;;;;;;;;28.70;90.40;;;;;;5015674;28;19914;-50
2022/07/25 04:05:33;;;;;;;;;;;28.70;90.40;;;;;;5019487;28;19936;-55
2022/07/25 04:07:59;;;;;;;;;;;28.70;90.40;;;;;;5017214;28;20098;-52
2022/07/25 04:10:25;;;;;;;;;;;28.60;90.30;;;;;;5013676;28;20194;-51
2022/07/25 04:12:51;;;;;;;;;;;28.60;90.20;;;;;;5004680;28;20274;-58
2022/07/25 04:15:17;;;;;;;;;;;28.60;90.20;;;;;;5005281;28;19921;-51
2022/07/25 04:17:44;;;;;;;;;;;28.60;90.10;;;;;;5022020;28;19910;-51
2022/07/25 04:20:22;;;;;;;;;;;28.60;90.10;;;;;;5024133;28;19914;-51
2022/07/25 04:22:48;;;;;;;;;;;28.60;90.10;;;;;;5023804;28;19910;-53
2022/07/25 04:25:28;;;;;;;;;;;28.60;90.20;;;;;;5022719;28;19976;-59
2022/07/25 04:27:54;;;;;;;;;;;28.60;90.20;;;;;;5024277;28;19909;-55
2022/07/25 04:30:20;;;;;;;;;;;28.60;90.30;;;;;;5023309;28;20184;-50
2022/07/25 04:32:47;;;;;;;;;;;28.60;90.30;;;;;;5020774;28;19988;-51
2022/07/25 04:35:15;;;;;;;;;;;28.50;90.30;;;;;;5024932;28;19913;-53
2022/07/25 04:37:41;;;;;;;;;;;28.50;90.30;;;;;;5024815;28;20186;-53
2022/07/25 04:40:09;;;;;;;;;;;28.60;90.30;;;;;;5017954;28;19921;-50
2022/07/25 04:42:36;;;;;;;;;;;28.50;90.30;;;;;;5008342;28;19913;-51
2022/07/25 04:45:03;;;;;;;;;;;28.50;90.30;;;;;;5004546;28;19920;-51
2022/07/25 04:47:29;;;;;;;;;;;28.50;90.40;;;;;;5004061;28;19968;-50
2022/07/25 04:49:55;;;;;;;;;;;28.50;90.40;;;;;;5004290;28;20200;-54
2022/07/25 04:52:21;;;;;;;;;;;28.50;90.50;;;;;;5004038;28;19928;-51
2022/07/25 04:54:47;;;;;;;;;;;28.50;90.50;;;;;;5003999;28;19918;-51
2022/07/25 04:57:14;;;;;;;;;;;28.50;90.50;;;;;;5004250;28;19906;-50
2022/07/25 04:59:40;;;;;;;;;;;28.50;90.40;;;;;;5004054;28;19917;-50
2022/07/25 05:02:06;;;;;;;;;;;28.50;90.50;;;;;;5004084;28;19910;-50
2022/07/25 05:04:32;;;;;;;;;;;28.40;90.40;;;;;;5003689;28;19922;-51
2022/07/25 05:06:58;;;;;;;;;;;28.40;90.50;;;;;;5003746;28;19991;-50
2022/07/25 05:09:24;;;;;;;;;;;28.40;90.50;;;;;;5003727;28;20255;-52
2022/07/25 05:11:50;;;;;;;;;;;28.40;90.50;;;;;;5012918;28;19913;-53
2022/07/25 05:14:16;;;;;;;;;;;28.40;90.70;;;;;;5023359;28;19913;-51
2022/07/25 05:16:43;;;;;;;;;;;28.40;90.70;;;;;;5023354;28;19909;-57
2022/07/25 05:19:09;;;;;;;;;;;28.40;90.70;;;;;;5023335;28;20128;-54
2022/07/25 05:21:35;;;;;;;;;;;28.40;90.80;;;;;;5023213;28;19917;-52
2022/07/25 05:24:01;;;;;;;;;;;28.40;90.80;;;;;;5023185;28;19985;-51
2022/07/25 05:26:27;;;;;;;;;;;28.30;90.80;;;;;;5023044;28;19967;-49
2022/07/25 05:28:53;;;;;;;;;;;28.30;90.80;;;;;;5023201;28;19928;-48
2022/07/25 05:31:19;;;;;;;;;;;28.30;90.90;;;;;;5023136;28;19930;-50
2022/07/25 05:33:45;;;;;;;;;;;28.30;90.80;;;;;;5022868;28;20180;-57
2022/07/25 05:36:12;;;;;;;;;;;28.30;90.80;;;;;;5023476;28;19983;-53
2022/07/25 05:38:38;;;;;;;;;;;28.20;90.80;;;;;;5023979;28;19909;-50
2022/07/25 05:41:04;;;;;;;;;;;28.20;90.90;;;;;;5023472;28;19943;-49
2022/07/25 05:43:30;;;;;;;;;;;28.20;91.00;;;;;;5022869;28;19909;-49
2022/07/25 05:46:03;;;;;;;;;;;28.20;91.00;;;;;;5023066;28;19913;-51
2022/07/25 05:48:29;;;;;;;;;;;28.20;91.00;;;;;;5022681;28;19981;-53
2022/07/25 05:50:57;;;;;;;;;;;28.20;91.00;;;;;;5022318;28;19930;-53
2022/07/25 05:53:24;;;;;;;;;;;28.20;90.90;;;;;;5022523;28;19916;-51
2022/07/25 05:55:50;;;;;;;;;;;28.20;90.90;;;;;;5004933;28;19914;-52
2022/07/25 05:58:16;;;;;;;;;;;28.20;90.90;;;;;;5019097;28;19905;-55
2022/07/25 06:00:42;;;;;;;;;;;28.10;90.90;;;;;;5022865;28;19945;-51
2022/07/25 06:03:09;;;;;;;;;;;28.20;90.90;;;;;;5022602;28;19913;-51
2022/07/25 06:05:35;;;;;;;;;;;28.10;90.90;;;;;;5022736;28;19921;-51
2022/07/25 06:08:01;;;;;;;;;;;28.10;90.90;;;;;;5022430;28;20216;-52
2022/07/25 06:10:27;;;;;;;;;;;28.10;90.90;;;;;;5022687;28;19914;-52
2022/07/25 06:12:53;;;;;;;;;;;28.10;91.00;;;;;;5020934;28;19928;-51
2022/07/25 06:15:19;;;;;;;;;;;28.10;91.00;;;;;;5022836;28;20224;-53
2022/07/25 06:17:45;;;;;;;;;;;28.00;90.90;;;;;;5022637;28;19909;-55
2022/07/25 06:20:11;;;;;;;;;;;28.00;90.90;;;;;;5022381;28;20011;-52
2022/07/25 06:22:39;;;;;;;;;;;28.00;90.90;;;;;;5022207;28;19912;-57
2022/07/25 06:25:05;;;;;;;;;;;28.00;90.90;;;;;;5022424;28;20101;-54
2022/07/25 06:27:31;;;;;;;;;;;28.00;91.00;;;;;;5022143;28;19909;-57
2022/07/25 06:29:57;;;;;;;;;;;28.00;91.00;;;;;;5021085;28;19913;-56
2022/07/25 06:32:26;;;;;;;;;;;28.00;91.00;;;;;;5022474;28;20220;-54
2022/07/25 06:34:52;;;;;;;;;;;28.00;91.00;;;;;;5020843;28;19924;-52
2022/07/25 06:37:18;;;;;;;;;;;28.00;91.10;;;;;;5022083;28;19905;-51
2022/07/25 06:39:44;;;;;;;;;;;28.00;91.10;;;;;;5022468;28;19913;-52
2022/07/25 06:42:10;;;;;;;;;;;28.00;91.10;;;;;;5022046;28;19906;-52
2022/07/25 06:44:36;;;;;;;;;;;28.00;91.10;;;;;;5022031;28;19914;-56
2022/07/25 06:47:04;;;;;;;;;;;27.90;91.20;;;;;;5021880;28;19905;-57
2022/07/25 06:49:30;;;;;;;;;;;27.90;91.30;;;;;;5021944;28;19913;-57
2022/07/25 06:51:56;;;;;;;;;;;27.90;91.30;;;;;;5021745;28;19906;-57
2022/07/25 06:54:23;;;;;;;;;;;27.90;91.30;;;;;;5021925;28;19917;-57
2022/07/25 06:56:49;;;;;;;;;;;27.80;91.30;;;;;;5021126;28;19913;-53
2022/07/25 06:59:15;;;;;;;;;;;27.80;91.40;;;;;;5021655;28;19913;-53
2022/07/25 07:01:41;;;;;;;;;;;27.90;91.40;;;;;;5021797;28;19935;-54
2022/07/25 07:04:07;;;;;;;;;;;27.80;91.30;;;;;;5021633;28;19917;-52
2022/07/25 07:06:35;;;;;;;;;;;27.90;91.30;;;;;;5021522;28;20139;-50
2022/07/25 07:09:01;;;;;;;;;;;27.90;91.40;;;;;;5021977;28;19943;-53
2022/07/25 07:11:27;;;;;;;;;;;27.90;91.40;;;;;;5021571;28;19909;-52
2022/07/25 07:13:53;;;;;;;;;;;27.90;91.40;;;;;;5021297;28;19909;-56
2022/07/25 07:16:19;;;;;;;;;;;27.90;91.50;;;;;;5021503;28;19917;-54
2022/07/25 07:18:46;;;;;;;;;;;27.80;91.50;;;;;;5021492;28;20083;-59
2022/07/25 07:21:12;;;;;;;;;;;27.90;91.50;;;;;;5021827;28;19917;-54
2022/07/25 07:23:38;;;;;;;;;;;27.90;91.50;;;;;;5021420;28;19975;-53
2022/07/25 07:26:04;;;;;;;;;;;27.80;91.50;;;;;;5021864;28;19909;-54
2022/07/25 07:28:30;;;;;;;;;;;27.80;91.50;;;;;;5021324;28;19940;-52
2022/07/25 07:30:56;;;;;;;;;;;27.80;91.50;;;;;;5021870;28;20006;-56
2022/07/25 07:33:22;;;;;;;;;;;27.80;91.50;;;;;;5021341;28;19992;-53
2022/07/25 07:35:49;;;;;;;;;;;27.80;91.50;;;;;;5021728;28;19913;-56
2022/07/25 07:38:16;;;;;;;;;;;27.80;91.50;;;;;;5021120;28;20101;-57
2022/07/25 07:40:43;;;;;;;;;;;27.80;91.50;;;;;;5021154;28;19910;-56
2022/07/25 07:43:09;;;;;;;;;;;27.80;91.50;;;;;;5021396;28;19916;-52
2022/07/25 07:45:35;;;;;;;;;;;27.80;91.60;;;;;;5017843;28;20228;-51
2022/07/25 07:48:02;;;;;;;;;;;27.80;91.60;;;;;;5021078;28;20091;-55
2022/07/25 07:50:29;;;;;;;;;;;27.80;91.60;;;;;;5012392;28;19914;-51
2022/07/25 07:52:57;;;;;;;;;;;27.80;91.50;;;;;;5008480;28;19984;-53
2022/07/25 07:58:08;;;;;;;;;;;27.70;91.40;;;;;;5016797;28;20117;-53
2022/07/25 08:00:35;;;;;;;;;;;27.70;91.40;;;;;;5001742;28;19921;-55
2022/07/25 08:03:02;;;;;;;;;;;27.70;91.40;;;;;;5001271;28;19910;-51
2022/07/25 08:05:33;;;;;;;;;;;27.70;91.40;;;;;;5001532;28;20129;-54
2022/07/25 08:08:00;;;;;;;;;;;27.70;91.30;;;;;;5003175;28;19921;-55
2022/07/25 08:10:27;;;;;;;;;;;27.70;91.30;;;;;;5005083;28;19977;-56
2022/07/25 08:12:54;;;;;;;;;;;27.70;91.30;;;;;;5008063;28;19920;-52
2022/07/25 08:15:20;;;;;;;;;;;27.70;91.20;;;;;;5024564;28;20212;-56
2022/07/25 08:17:47;;;;;;;;;;;27.70;91.20;;;;;;5024159;28;20171;-52
2022/07/25 08:20:13;;;;;;;;;;;27.60;91.20;;;;;;5024248;28;19952;-52
2022/07/25 08:22:45;;;;;;;;;;;27.60;91.20;;;;;;5024237;28;19977;-53
2022/07/25 08:25:19;;;;;;;;;;;27.70;91.10;;;;;;5014797;28;20254;-53
2022/07/25 08:27:45;;;;;;;;;;;27.70;91.10;;;;;;5004789;28;19929;-54
2022/07/25 08:30:12;;;;;;;;;;;27.60;91.10;;;;;;5004513;28;19906;-52
2022/07/25 08:33:05;;;;;;;;;;;27.60;91.10;;;;;;5004617;28;19949;-50
2022/07/25 08:35:31;;;;;;;;;;;27.60;91.00;;;;;;5003232;28;19941;-57
2022/07/25 08:37:58;;;;;;;;;;;27.60;91.10;;;;;;5004854;28;19914;-55
2022/07/25 08:40:25;;;;;;;;;;;27.60;91.20;;;;;;5006877;28;19914;-54
2022/07/25 08:42:53;;;;;;;;;;;27.60;91.10;;;;;;5004749;28;20101;-49
2022/07/25 08:45:20;;;;;;;;;;;27.60;91.20;;;;;;5004324;28;20097;-57
2022/07/25 08:47:47;;;;;;;;;;;27.60;91.10;;;;;;5004475;28;19922;-53
2022/07/25 08:50:14;;;;;;;;;;;27.60;91.20;;;;;;5004290;28;19906;-54
2022/07/25 08:52:46;;;;;;;;;;;27.60;91.20;;;;;;5004205;28;19918;-55
2022/07/25 08:55:14;;;;;;;;;;;27.50;91.20;;;;;;5004046;28;20198;-53
2022/07/25 08:57:42;;;;;;;;;;;27.50;91.20;;;;;;5003875;28;20252;-53
2022/07/25 09:00:10;;;;;;;;;;;27.50;91.20;;;;;;5003809;28;19935;-53
2022/07/25 09:02:37;;;;;;;;;;;27.50;91.30;;;;;;5004243;28;20071;-55
2022/07/25 09:05:03;;;;;;;;;;;27.50;91.40;;;;;;5003751;28;19925;-54
2022/07/25 09:07:30;;;;;;;;;;;27.50;91.40;;;;;;5004011;28;19918;-52
2022/07/25 09:09:56;;;;;;;;;;;27.50;91.50;;;;;;5003733;28;20101;-56
2022/07/25 09:12:26;;;;;;;;;;;27.50;91.50;;;;;;5004052;28;19914;-53
2022/07/25 09:14:53;;;;;;;;;;;27.50;91.50;;;;;;5003397;28;19960;-52
2022/07/25 09:17:19;;;;;;;;;;;27.50;91.50;;;;;;5003559;28;19914;-51
2022/07/25 09:19:55;;;;;;;;;;;27.50;91.60;;;;;;5003204;28;20181;-53
2022/07/25 09:22:21;;;;;;;;;;;27.50;91.60;;;;;;5003789;28;19977;-51
2022/07/25 09:24:47;;;;;;;;;;;27.50;91.70;;;;;;5003574;28;19937;-49
2022/07/25 09:27:14;;;;;;;;;;;27.50;91.70;;;;;;5003505;28;20099;-50
2022/07/25 09:29:43;;;;;;;;;;;27.50;91.70;;;;;;5003388;28;19941;-50
2022/07/25 09:32:14;;;;;;;;;;;27.50;91.80;;;;;;5003679;28;19918;-52
2022/07/25 09:34:41;;;;;;;;;;;27.50;91.80;;;;;;5003583;28;20083;-54
2022/07/25 09:37:08;;;;;;;;;;;27.50;91.80;;;;;;5003537;28;19977;-53
2022/07/25 09:39:34;;;;;;;;;;;27.50;91.70;;;;;;5003225;28;19906;-51
2022/07/25 09:42:01;;;;;;;;;;;27.50;91.50;;;;;;5003499;28;19914;-50
2022/07/25 09:44:30;;;;;;;;;;;27.50;91.50;;;;;;5003084;28;19906;-54
2022/07/25 09:46:59;;;;;;;;;;;27.50;91.40;;;;;;5003309;28;19914;-52
2022/07/25 09:49:36;;;;;;;;;;;27.50;91.40;;;;;;5003274;28;20213;-50
2022/07/25 09:52:02;;;;;;;;;;;27.50;91.30;;;;;;5003381;28;19914;-56
2022/07/25 09:54:29;;;;;;;;;;;27.50;91.30;;;;;;5002896;28;19988;-55
2022/07/25 09:56:55;;;;;;;;;;;27.50;91.20;;;;;;5003181;28;19914;-53
2022/07/25 09:59:21;;;;;;;;;;;27.50;91.20;;;;;;5003126;28;19914;-53
2022/07/25 10:01:53;;;;;;;;;;;27.50;91.10;;;;;;5003220;28;20221;-53
2022/07/25 10:04:26;;;;;;;;;;;27.40;91.10;;;;;;5002394;28;19945;-50
2022/07/25 10:07:04;;;;;;;;;;;27.50;91.10;;;;;;5003035;28;19971;-58
2022/07/25 10:09:30;;;;;;;;;;;27.50;91.00;;;;;;5002859;28;20182;-59
2022/07/25 10:12:04;;;;;;;;;;;27.50;91.00;;;;;;5002622;28;19920;-50
2022/07/25 10:14:32;;;;;;;;;;;27.40;90.90;;;;;;5002663;28;19910;-50
2022/07/25 10:16:59;;;;;;;;;;;27.50;90.90;;;;;;5002754;28;19955;-56
2022/07/25 10:19:54;;;;;;;;;;;27.40;90.80;;;;;;5002559;28;19906;-52
2022/07/25 10:22:21;;;;;;;;;;;27.40;90.90;;;;;;5006521;28;19920;-49
2022/07/25 10:24:48;;;;;;;;;;;27.40;90.90;;;;;;5002551;28;19905;-49
2022/07/25 10:27:21;;;;;;;;;;;27.40;90.90;;;;;;5002779;28;19979;-50
2022/07/25 10:29:54;;;;;;;;;;;27.30;91.00;;;;;;5002434;28;19910;-50
2022/07/25 10:32:24;;;;;;;;;;;27.40;91.00;;;;;;5001747;28;19914;-53
2022/07/25 10:34:51;;;;;;;;;;;27.40;90.90;;;;;;5002241;28;19973;-51
2022/07/25 10:37:19;;;;;;;;;;;27.30;91.00;;;;;;5002664;28;19914;-54
2022/07/25 10:39:47;;;;;;;;;;;27.40;91.10;;;;;;5002411;28;19906;-58
2022/07/25 10:42:14;;;;;;;;;;;27.40;91.20;;;;;;5002488;28;19918;-51
2022/07/25 10:44:52;;;;;;;;;;;27.30;91.10;;;;;;5002279;28;20194;-52
2022/07/25 10:47:21;;;;;;;;;;;27.30;91.10;;;;;;5002620;28;19933;-54
2022/07/25 10:49:48;;;;;;;;;;;27.30;91.10;;;;;;5002070;28;19906;-50
2022/07/25 10:52:16;;;;;;;;;;;27.40;91.20;;;;;;5002479;28;20186;-51
2022/07/25 10:54:51;;;;;;;;;;;27.30;91.20;;;;;;5002243;28;20202;-54
2022/07/25 10:57:17;;;;;;;;;;;27.30;91.20;;;;;;5002502;28;20005;-51
2022/07/25 10:59:44;;;;;;;;;;;27.30;91.10;;;;;;5002397;28;19917;-61
2022/07/25 11:02:16;;;;;;;;;;;27.30;91.10;;;;;;5002536;28;19914;-50
2022/07/25 11:04:43;;;;;;;;;;;27.30;91.20;;;;;;5002063;28;19980;-49
2022/07/25 11:07:14;;;;;;;;;;;27.30;91.20;;;;;;5002406;28;20190;-48
2022/07/25 11:09:41;;;;;;;;;;;27.30;91.20;;;;;;5002472;28;19913;-57
2022/07/25 11:12:08;;;;;;;;;;;27.30;91.30;;;;;;5001401;28;19910;-53
2022/07/25 11:14:36;;;;;;;;;;;27.30;91.30;;;;;;5001891;28;19972;-53
2022/07/25 11:17:09;;;;;;;;;;;27.30;91.40;;;;;;5001781;28;19910;-52
2022/07/25 11:19:36;;;;;;;;;;;27.30;91.40;;;;;;5002048;28;19910;-50
2022/07/25 11:22:05;;;;;;;;;;;27.30;91.30;;;;;;5002221;28;19942;-53
2022/07/25 11:24:35;;;;;;;;;;;27.30;91.30;;;;;;5012765;28;19931;-54
2022/07/25 11:27:02;;;;;;;;;;;27.30;91.30;;;;;;5010764;28;19977;-51
2022/07/25 11:29:28;;;;;;;;;;;27.30;91.30;;;;;;5002179;28;20185;-51
2022/07/25 11:31:58;;;;;;;;;;;27.30;91.30;;;;;;5002246;28;20102;-52
2022/07/25 11:35:24;;;;;;;;;;;27.30;91.60;;;;;;5007793;28;19916;-53
2022/07/25 11:37:47;;;;;;;;;;;27.30;91.30;;;;;;5032619;28;19944;-50
2022/07/25 11:40:15;;;;;;;;;;;27.30;91.30;;;;;;5015514;28;19972;-49
2022/07/25 11:42:41;;;;;;;;;;;27.30;91.30;;;;;;5023908;28;20120;-51
2022/07/25 11:45:26;;;;;;;;;;;27.30;91.30;;;;;;5025773;28;19952;-60
2022/07/25 11:48:25;;;;;;;;;;;27.30;91.30;;;;;;5025392;28;19910;-49
2022/07/25 11:50:51;;;;;;;;;;;27.30;91.30;;;;;;5086641;28;20101;-51
2022/07/25 11:53:18;;;;;;;;;;;27.30;91.40;;;;;;5077956;28;19994;-47
2022/07/25 11:55:45;;;;;;;;;;;27.30;91.60;;;;;;5023236;28;19905;-50
2022/07/25 11:58:12;;;;;;;;;;;27.30;91.70;;;;;;5023077;28;20236;-52
2022/07/25 12:00:40;;;;;;;;;;;27.30;91.70;;;;;;5023335;28;19910;-53
2022/07/25 12:03:07;;;;;;;;;;;27.30;91.70;;;;;;5024699;28;20194;-50
2022/07/25 12:05:33;;;;;;;;;;;27.30;91.80;;;;;;5023082;28;19909;-49
2022/07/25 12:08:07;;;;;;;;;;;27.30;91.70;;;;;;5025134;28;19914;-54
2022/07/25 12:10:34;;;;;;;;;;;27.30;91.60;;;;;;5024305;28;19913;-49
2022/07/25 12:13:02;;;;;;;;;;;27.20;91.80;;;;;;5024814;28;20148;-50
2022/07/25 12:15:30;;;;;;;;;;;27.20;91.80;;;;;;5023114;28;20224;-55
2022/07/25 12:17:56;;;;;;;;;;;27.20;91.80;;;;;;5024740;28;19920;-47
2022/07/25 12:20:33;;;;;;;;;;;27.20;92.00;;;;;;5024275;28;19906;-50
2022/07/25 12:23:07;;;;;;;;;;;27.20;91.90;;;;;;5021480;28;19913;-53
2022/07/25 12:25:35;;;;;;;;;;;27.20;92.00;;;;;;5025733;28;19951;-50
2022/07/25 12:28:02;;;;;;;;;;;27.20;92.20;;;;;;5027357;28;20132;-51
2022/07/25 12:30:29;;;;;;;;;;;27.20;92.30;;;;;;5024812;28;19905;-50
2022/07/25 12:32:56;;;;;;;;;;;27.20;92.20;;;;;;5028648;28;19963;-55
2022/07/25 12:35:23;;;;;;;;;;;27.20;92.00;;;;;;5023331;28;19909;-51
2022/07/25 12:37:49;;;;;;;;;;;27.20;92.20;;;;;;5024700;28;19914;-52
2022/07/25 12:40:16;;;;;;;;;;;27.20;92.10;;;;;;5025561;28;20097;-52
2022/07/25 12:42:42;;;;;;;;;;;27.20;92.20;;;;;;5024710;28;19913;-49
2022/07/25 12:45:09;;;;;;;;;;;27.20;92.20;;;;;;5024963;28;20082;-52
2022/07/25 12:47:35;;;;;;;;;;;27.20;92.30;;;;;;5025181;28;19943;-52
2022/07/25 12:50:02;;;;;;;;;;;27.20;92.50;;;;;;5025075;28;19913;-56
2022/07/25 12:52:28;;;;;;;;;;;27.20;92.80;;;;;;5023166;28;19922;-48
2022/07/25 12:54:54;;;;;;;;;;;27.20;92.60;;;;;;5023706;28;19988;-51
2022/07/25 12:57:21;;;;;;;;;;;27.20;92.60;;;;;;5024652;28;19914;-51
2022/07/25 12:59:47;;;;;;;;;;;27.20;92.70;;;;;;5026174;28;19964;-50
2022/07/25 13:02:13;;;;;;;;;;;27.30;92.70;;;;;;5022964;28;19914;-51
2022/07/25 13:04:39;;;;;;;;;;;27.30;92.80;;;;;;5024326;28;19918;-50
2022/07/25 13:07:06;;;;;;;;;;;27.20;92.80;;;;;;5024233;28;20105;-51
2022/07/25 13:09:32;;;;;;;;;;;27.30;92.80;;;;;;5023268;28;19950;-50
2022/07/25 13:11:58;;;;;;;;;;;27.20;92.90;;;;;;5022124;28;19921;-54
2022/07/25 13:14:25;;;;;;;;;;;27.30;93.00;;;;;;5025193;28;20158;-53
2022/07/25 13:16:51;;;;;;;;;;;27.30;92.90;;;;;;5024769;28;19913;-52
2022/07/25 13:19:17;;;;;;;;;;;27.30;92.80;;;;;;5024037;28;19905;-55
2022/07/25 13:21:44;;;;;;;;;;;27.30;92.80;;;;;;5023581;28;19941;-52
2022/07/25 13:24:10;;;;;;;;;;;27.30;92.90;;;;;;5023329;28;19906;-50
2022/07/25 13:26:37;;;;;;;;;;;27.40;92.80;;;;;;5023182;28;19914;-58
2022/07/25 13:29:07;;;;;;;;;;;27.40;92.60;;;;;;5022177;28;19913;-51
2022/07/25 13:31:34;;;;;;;;;;;27.40;92.60;;;;;;5019172;28;19914;-51
2022/07/25 13:34:01;;;;;;;;;;;27.40;92.50;;;;;;5005879;28;20246;-53
2022/07/25 13:36:27;;;;;;;;;;;27.40;92.50;;;;;;5012187;28;20089;-51
2022/07/25 13:38:53;;;;;;;;;;;27.40;92.20;;;;;;5023129;28;20200;-50
2022/07/25 13:41:19;;;;;;;;;;;27.50;92.10;;;;;;5022631;28;19929;-51
2022/07/25 13:43:46;;;;;;;;;;;27.50;92.10;;;;;;5011804;28;19906;-58
2022/07/25 13:46:12;;;;;;;;;;;27.50;91.90;;;;;;5003277;28;20204;-50
2022/07/25 13:48:41;;;;;;;;;;;27.50;91.80;;;;;;5014368;28;20143;-55
2022/07/25 13:51:07;;;;;;;;;;;27.50;91.90;;;;;;5023539;28;19909;-50
2022/07/25 13:53:36;;;;;;;;;;;27.50;92.10;;;;;;5023220;28;19909;-50
2022/07/25 13:56:02;;;;;;;;;;;27.60;92.10;;;;;;5022550;28;19977;-52
2022/07/25 13:58:28;;;;;;;;;;;27.60;92.10;;;;;;5018663;28;19916;-50
2022/07/25 14:00:54;;;;;;;;;;;27.60;92.40;;;;;;5022613;28;19905;-51
2022/07/25 14:03:21;;;;;;;;;;;27.60;92.30;;;;;;5022254;28;19979;-48
2022/07/25 14:05:47;;;;;;;;;;;27.60;92.60;;;;;;5022522;28;19912;-49
2022/07/25 14:08:13;;;;;;;;;;;27.60;92.90;;;;;;5021454;28;19913;-50
2022/07/25 14:10:39;;;;;;;;;;;27.60;93.40;;;;;;5020073;28;19917;-58
2022/07/25 14:13:06;;;;;;;;;;;27.60;93.70;;;;;;5015262;28;19925;-50
2022/07/25 14:15:32;;;;;;;;;;;27.60;93.90;;;;;;5022955;28;19905;-52
2022/07/25 14:17:58;;;;;;;;;;;27.70;94.40;;;;;;5023022;28;19921;-52
2022/07/25 14:20:24;;;;;;;;;;;27.70;94.40;;;;;;5022477;28;19906;-55